sensor_id;sensor_type;location;lat;lon;timestamp;pressure;altitude;pressure_sealevel;temperature;humidity
77250;BME280;66287;42.658;27.568;2023-03-05T00:01:36;99704.25;;;9.32;60.00
77250;BME280;66287;42.658;27.568;2023-03-05T00:04:02;99707.97;;;9.31;60.12
77250;BME280;66287;42.658;27.568;2023-03-05T00:06:29;99704.44;;;9.31;59.69
77250;BME280;66287;42.658;27.568;2023-03-05T00:08:55;99701.53;;;9.32;60.35
77250;BME280;66287;42.658;27.568;2023-03-05T00:11:22;99704.44;;;9.31;60.38
77250;BME280;66287;42.658;27.568;2023-03-05T00:13:52;99704.66;;;9.29;60.34
77250;BME280;66287;42.658;27.568;2023-03-05T00:16:18;99709.00;;;9.30;60.73
77250;BME280;66287;42.658;27.568;2023-03-05T00:18:44;99708.19;;;9.30;60.94
77250;BME280;66287;42.658;27.568;2023-03-05T00:21:21;99701.31;;;9.27;60.45
77250;BME280;66287;42.658;27.568;2023-03-05T00:23:46;99706.94;;;9.26;61.24
77250;BME280;66287;42.658;27.568;2023-03-05T00:26:12;99709.84;;;9.24;61.17
77250;BME280;66287;42.658;27.568;2023-03-05T00:28:38;99711.91;;;9.22;60.84
77250;BME280;66287;42.658;27.568;2023-03-05T00:31:03;99707.75;;;9.20;61.42
77250;BME280;66287;42.658;27.568;2023-03-05T00:33:29;99705.03;;;9.20;61.35
77250;BME280;66287;42.658;27.568;2023-03-05T00:35:55;99700.28;;;9.15;60.63
77250;BME280;66287;42.658;27.568;2023-03-05T00:38:21;99706.72;;;9.14;60.95
77250;BME280;66287;42.658;27.568;2023-03-05T00:40:48;99701.31;;;9.14;61.47
77250;BME280;66287;42.658;27.568;2023-03-05T00:43:14;99706.72;;;9.14;60.53
77250;BME280;66287;42.658;27.568;2023-03-05T00:45:39;99711.50;;;9.12;60.64
77250;BME280;66287;42.658;27.568;2023-03-05T00:48:05;99704.19;;;9.06;61.21
77250;BME280;66287;42.658;27.568;2023-03-05T00:50:30;99713.34;;;8.98;61.22
77250;BME280;66287;42.658;27.568;2023-03-05T00:52:56;99705.63;;;8.89;61.19
77250;BME280;66287;42.658;27.568;2023-03-05T00:55:21;99699.97;;;8.84;61.33
77250;BME280;66287;42.658;27.568;2023-03-05T00:57:47;99699.78;;;8.79;61.52
77250;BME280;66287;42.658;27.568;2023-03-05T01:00:13;99708.69;;;8.79;61.48
77250;BME280;66287;42.658;27.568;2023-03-05T01:02:38;99706.81;;;8.73;60.92
77250;BME280;66287;42.658;27.568;2023-03-05T01:05:04;99708.84;;;8.64;60.90
77250;BME280;66287;42.658;27.568;2023-03-05T01:07:30;99717.38;;;8.61;61.50
77250;BME280;66287;42.658;27.568;2023-03-05T01:09:55;99710.09;;;8.62;61.24
77250;BME280;66287;42.658;27.568;2023-03-05T01:12:20;99705.94;;;8.59;60.88
77250;BME280;66287;42.658;27.568;2023-03-05T01:14:46;99705.53;;;8.56;61.22
77250;BME280;66287;42.658;27.568;2023-03-05T01:17:11;99697.63;;;8.54;61.39
77250;BME280;66287;42.658;27.568;2023-03-05T01:19:37;99701.56;;;8.52;61.45
77250;BME280;66287;42.658;27.568;2023-03-05T01:22:02;99699.44;;;8.47;60.65
77250;BME280;66287;42.658;27.568;2023-03-05T01:24:29;99697.34;;;8.43;61.47
77250;BME280;66287;42.658;27.568;2023-03-05T01:26:54;99701.72;;;8.37;61.00
77250;BME280;66287;42.658;27.568;2023-03-05T01:29:20;99703.50;;;8.30;61.09
77250;BME280;66287;42.658;27.568;2023-03-05T01:31:45;99694.09;;;8.19;61.72
77250;BME280;66287;42.658;27.568;2023-03-05T01:34:11;99699.72;;;8.18;61.25
77250;BME280;66287;42.658;27.568;2023-03-05T01:36:39;99700.31;;;8.13;61.09
77250;BME280;66287;42.658;27.568;2023-03-05T01:39:05;99701.72;;;8.09;61.72
77250;BME280;66287;42.658;27.568;2023-03-05T01:41:30;99705.66;;;8.07;61.45
77250;BME280;66287;42.658;27.568;2023-03-05T01:43:56;99704.00;;;8.06;61.77
77250;BME280;66287;42.658;27.568;2023-03-05T01:46:30;99701.09;;;8.07;61.58
77250;BME280;66287;42.658;27.568;2023-03-05T01:51:22;99693.84;;;8.08;61.98
77250;BME280;66287;42.658;27.568;2023-03-05T01:53:49;99690.31;;;8.07;61.34
77250;BME280;66287;42.658;27.568;2023-03-05T01:56:15;99689.06;;;8.10;61.01
77250;BME280;66287;42.658;27.568;2023-03-05T01:58:41;99691.13;;;8.08;61.76
77250;BME280;66287;42.658;27.568;2023-03-05T02:01:06;99687.16;;;8.04;61.51
77250;BME280;66287;42.658;27.568;2023-03-05T02:03:32;99692.75;;;8.02;61.34
77250;BME280;66287;42.658;27.568;2023-03-05T02:05:58;99691.91;;;8.02;62.29
77250;BME280;66287;42.658;27.568;2023-03-05T02:08:23;99695.66;;;8.01;62.65
77250;BME280;66287;42.658;27.568;2023-03-05T02:10:55;99696.91;;;7.98;61.90
77250;BME280;66287;42.658;27.568;2023-03-05T02:13:22;99690.63;;;7.91;61.70
77250;BME280;66287;42.658;27.568;2023-03-05T02:15:48;99695.38;;;7.89;61.68
77250;BME280;66287;42.658;27.568;2023-03-05T02:18:15;99688.50;;;7.86;62.18
77250;BME280;66287;42.658;27.568;2023-03-05T02:23:12;99682.66;;;7.76;61.84
77250;BME280;66287;42.658;27.568;2023-03-05T02:25:37;99693.19;;;7.71;61.95
77250;BME280;66287;42.658;27.568;2023-03-05T02:30:34;99708.72;;;7.69;62.71
77250;BME280;66287;42.658;27.568;2023-03-05T02:33:00;99711.44;;;7.69;62.35
77250;BME280;66287;42.658;27.568;2023-03-05T02:35:26;99706.81;;;7.63;62.53
77250;BME280;66287;42.658;27.568;2023-03-05T02:37:51;99707.63;;;7.57;62.34
77250;BME280;66287;42.658;27.568;2023-03-05T02:40:17;99706.78;;;7.56;62.91
77250;BME280;66287;42.658;27.568;2023-03-05T02:42:42;99708.41;;;7.51;62.84
77250;BME280;66287;42.658;27.568;2023-03-05T02:45:10;99707.75;;;7.49;62.67
77250;BME280;66287;42.658;27.568;2023-03-05T02:47:36;99708.97;;;7.46;62.81
77250;BME280;66287;42.658;27.568;2023-03-05T02:50:02;99710.84;;;7.46;63.00
77250;BME280;66287;42.658;27.568;2023-03-05T02:52:28;99716.88;;;7.48;63.38
77250;BME280;66287;42.658;27.568;2023-03-05T02:54:53;99708.00;;;7.54;63.06
77250;BME280;66287;42.658;27.568;2023-03-05T02:57:21;99707.44;;;7.58;63.46
77250;BME280;66287;42.658;27.568;2023-03-05T02:59:47;99709.69;;;7.61;63.33
77250;BME280;66287;42.658;27.568;2023-03-05T03:02:12;99714.06;;;7.63;63.49
77250;BME280;66287;42.658;27.568;2023-03-05T03:04:38;99716.19;;;7.67;63.62
77250;BME280;66287;42.658;27.568;2023-03-05T03:07:04;99708.72;;;7.69;63.58
77250;BME280;66287;42.658;27.568;2023-03-05T03:09:29;99710.22;;;7.72;64.37
77250;BME280;66287;42.658;27.568;2023-03-05T03:11:55;99711.50;;;7.76;64.11
77250;BME280;66287;42.658;27.568;2023-03-05T03:14:20;99700.69;;;7.76;64.31
77250;BME280;66287;42.658;27.568;2023-03-05T03:16:46;99699.47;;;7.78;64.62
77250;BME280;66287;42.658;27.568;2023-03-05T03:19:11;99699.66;;;7.77;64.69
77250;BME280;66287;42.658;27.568;2023-03-05T03:21:36;99693.44;;;7.76;64.67
77250;BME280;66287;42.658;27.568;2023-03-05T03:24:02;99698.59;;;7.71;65.24
77250;BME280;66287;42.658;27.568;2023-03-05T03:26:28;99690.69;;;7.70;64.47
77250;BME280;66287;42.658;27.568;2023-03-05T03:28:54;99689.22;;;7.67;64.84
77250;BME280;66287;42.658;27.568;2023-03-05T03:31:20;99682.53;;;7.63;66.29
77250;BME280;66287;42.658;27.568;2023-03-05T03:33:45;99693.34;;;7.63;66.09
77250;BME280;66287;42.658;27.568;2023-03-05T03:36:11;99696.66;;;7.65;65.91
77250;BME280;66287;42.658;27.568;2023-03-05T03:38:36;99688.78;;;7.64;66.21
77250;BME280;66287;42.658;27.568;2023-03-05T03:41:04;99694.56;;;7.60;65.81
77250;BME280;66287;42.658;27.568;2023-03-05T03:43:29;99693.94;;;7.58;66.33
77250;BME280;66287;42.658;27.568;2023-03-05T03:45:55;99679.00;;;7.56;65.63
77250;BME280;66287;42.658;27.568;2023-03-05T03:48:20;99683.09;;;7.52;66.30
77250;BME280;66287;42.658;27.568;2023-03-05T03:50:46;99679.56;;;7.51;66.37
77250;BME280;66287;42.658;27.568;2023-03-05T03:53:11;99684.13;;;7.51;66.59
77250;BME280;66287;42.658;27.568;2023-03-05T03:55:39;99676.03;;;7.51;66.24
77250;BME280;66287;42.658;27.568;2023-03-05T03:58:04;99678.72;;;7.51;66.15
77250;BME280;66287;42.658;27.568;2023-03-05T04:00:30;99672.50;;;7.50;65.46
77250;BME280;66287;42.658;27.568;2023-03-05T04:02:55;99669.41;;;7.53;66.48
77250;BME280;66287;42.658;27.568;2023-03-05T04:05:21;99675.41;;;7.49;66.06
77250;BME280;66287;42.658;27.568;2023-03-05T04:07:46;99663.19;;;7.53;65.63
77250;BME280;66287;42.658;27.568;2023-03-05T04:10:11;99668.97;;;7.50;65.90
77250;BME280;66287;42.658;27.568;2023-03-05T04:12:37;99666.88;;;7.45;65.47
77250;BME280;66287;42.658;27.568;2023-03-05T04:15:03;99668.25;;;7.35;66.70
77250;BME280;66287;42.658;27.568;2023-03-05T04:17:29;99665.69;;;7.26;66.46
77250;BME280;66287;42.658;27.568;2023-03-05T04:19:56;99663.97;;;7.19;66.08
77250;BME280;66287;42.658;27.568;2023-03-05T04:22:22;99665.75;;;7.12;66.25
77250;BME280;66287;42.658;27.568;2023-03-05T04:24:47;99660.63;;;7.17;66.67
77250;BME280;66287;42.658;27.568;2023-03-05T04:27:13;99663.13;;;7.18;66.23
77250;BME280;66287;42.658;27.568;2023-03-05T04:29:38;99658.34;;;7.20;66.12
77250;BME280;66287;42.658;27.568;2023-03-05T04:32:04;99656.69;;;7.19;65.96
77250;BME280;66287;42.658;27.568;2023-03-05T04:34:29;99658.81;;;7.24;66.01
77250;BME280;66287;42.658;27.568;2023-03-05T04:36:55;99654.91;;;7.26;66.03
77250;BME280;66287;42.658;27.568;2023-03-05T04:39:20;99656.19;;;7.31;66.07
77250;BME280;66287;42.658;27.568;2023-03-05T04:41:47;99663.44;;;7.30;66.13
77250;BME280;66287;42.658;27.568;2023-03-05T04:44:12;99662.97;;;7.26;66.87
77250;BME280;66287;42.658;27.568;2023-03-05T04:46:38;99667.78;;;7.31;67.44
77250;BME280;66287;42.658;27.568;2023-03-05T04:49:03;99668.88;;;7.37;66.84
77250;BME280;66287;42.658;27.568;2023-03-05T04:51:29;99662.47;;;7.38;67.65
77250;BME280;66287;42.658;27.568;2023-03-05T04:53:54;99669.09;;;7.42;67.59
77250;BME280;66287;42.658;27.568;2023-03-05T04:56:20;99662.31;;;7.46;67.60
77250;BME280;66287;42.658;27.568;2023-03-05T04:58:45;99671.66;;;7.50;68.26
77250;BME280;66287;42.658;27.568;2023-03-05T05:01:11;99663.59;;;7.50;68.10
77250;BME280;66287;42.658;27.568;2023-03-05T05:03:36;99664.22;;;7.52;67.17
77250;BME280;66287;42.658;27.568;2023-03-05T05:06:02;99663.19;;;7.53;68.52
77250;BME280;66287;42.658;27.568;2023-03-05T05:08:27;99660.13;;;7.56;67.81
77250;BME280;66287;42.658;27.568;2023-03-05T05:11:00;99668.00;;;7.57;68.07
77250;BME280;66287;42.658;27.568;2023-03-05T05:13:26;99667.00;;;7.65;67.77
77250;BME280;66287;42.658;27.568;2023-03-05T05:15:51;99677.66;;;7.73;67.96
77250;BME280;66287;42.658;27.568;2023-03-05T05:18:17;99681.44;;;7.79;67.79
77250;BME280;66287;42.658;27.568;2023-03-05T05:20:42;99683.63;;;7.97;66.40
77250;BME280;66287;42.658;27.568;2023-03-05T05:23:08;99688.69;;;8.19;65.63
77250;BME280;66287;42.658;27.568;2023-03-05T05:25:33;99691.53;;;8.39;64.52
77250;BME280;66287;42.658;27.568;2023-03-05T05:27:59;99693.25;;;8.60;65.02
77250;BME280;66287;42.658;27.568;2023-03-05T05:30:24;99697.09;;;8.79;64.54
77250;BME280;66287;42.658;27.568;2023-03-05T05:32:50;99691.94;;;8.97;63.83
77250;BME280;66287;42.658;27.568;2023-03-05T05:35:15;99693.59;;;9.11;63.70
77250;BME280;66287;42.658;27.568;2023-03-05T05:37:41;99703.38;;;9.25;63.59
77250;BME280;66287;42.658;27.568;2023-03-05T05:40:07;99694.88;;;9.42;64.19
77250;BME280;66287;42.658;27.568;2023-03-05T05:42:33;99706.72;;;9.60;63.40
77250;BME280;66287;42.658;27.568;2023-03-05T05:44:58;99691.94;;;9.83;63.84
77250;BME280;66287;42.658;27.568;2023-03-05T05:47:24;99695.63;;;10.08;63.56
77250;BME280;66287;42.658;27.568;2023-03-05T05:49:49;99698.09;;;10.36;63.00
77250;BME280;66287;42.658;27.568;2023-03-05T05:52:15;99701.69;;;10.68;63.36
77250;BME280;66287;42.658;27.568;2023-03-05T05:54:41;99704.81;;;11.03;63.02
77250;BME280;66287;42.658;27.568;2023-03-05T05:57:06;99705.25;;;11.38;62.61
77250;BME280;66287;42.658;27.568;2023-03-05T05:59:32;99699.09;;;11.74;62.53
77250;BME280;66287;42.658;27.568;2023-03-05T06:01:57;99704.19;;;11.89;61.70
77250;BME280;66287;42.658;27.568;2023-03-05T06:04:23;99699.41;;;12.27;61.80
77250;BME280;66287;42.658;27.568;2023-03-05T06:06:49;99703.91;;;12.70;61.37
77250;BME280;66287;42.658;27.568;2023-03-05T06:09:14;99703.84;;;12.76;60.52
77250;BME280;66287;42.658;27.568;2023-03-05T06:11:40;99714.34;;;12.73;60.18
77250;BME280;66287;42.658;27.568;2023-03-05T06:14:05;99707.84;;;12.74;60.05
77250;BME280;66287;42.658;27.568;2023-03-05T06:16:32;99712.50;;;12.67;59.85
77250;BME280;66287;42.658;27.568;2023-03-05T06:18:58;99718.28;;;12.59;60.43
77250;BME280;66287;42.658;27.568;2023-03-05T06:21:24;99722.41;;;12.61;60.40
77250;BME280;66287;42.658;27.568;2023-03-05T06:23:49;99717.50;;;12.70;60.67
77250;BME280;66287;42.658;27.568;2023-03-05T06:26:16;99721.81;;;12.77;60.14
77250;BME280;66287;42.658;27.568;2023-03-05T06:28:42;99718.97;;;12.84;60.41
77250;BME280;66287;42.658;27.568;2023-03-05T06:31:15;99714.78;;;13.00;60.24
77250;BME280;66287;42.658;27.568;2023-03-05T06:33:40;99724.56;;;13.37;60.56
77250;BME280;66287;42.658;27.568;2023-03-05T06:36:07;99722.72;;;13.85;60.31
77250;BME280;66287;42.658;27.568;2023-03-05T06:38:33;99717.97;;;14.27;59.41
77250;BME280;66287;42.658;27.568;2023-03-05T06:40:59;99716.31;;;14.49;59.34
77250;BME280;66287;42.658;27.568;2023-03-05T06:43:25;99718.75;;;14.62;59.00
77250;BME280;66287;42.658;27.568;2023-03-05T06:46:00;99719.94;;;14.66;58.79
77250;BME280;66287;42.658;27.568;2023-03-05T06:48:25;99720.53;;;14.68;58.87
77250;BME280;66287;42.658;27.568;2023-03-05T06:50:50;99729.31;;;14.70;58.88
77250;BME280;66287;42.658;27.568;2023-03-05T06:53:16;99726.34;;;14.72;58.36
77250;BME280;66287;42.658;27.568;2023-03-05T06:55:41;99725.50;;;14.71;58.73
77250;BME280;66287;42.658;27.568;2023-03-05T06:58:07;99712.94;;;14.70;58.75
77250;BME280;66287;42.658;27.568;2023-03-05T07:00:32;99724.69;;;14.71;58.89
77250;BME280;66287;42.658;27.568;2023-03-05T07:02:58;99722.31;;;14.74;59.03
77250;BME280;66287;42.658;27.568;2023-03-05T07:05:23;99734.41;;;14.78;59.01
77250;BME280;66287;42.658;27.568;2023-03-05T07:07:49;99728.44;;;14.81;59.05
77250;BME280;66287;42.658;27.568;2023-03-05T07:10:14;99730.19;;;14.88;58.91
77250;BME280;66287;42.658;27.568;2023-03-05T07:12:39;99728.00;;;15.01;58.98
77250;BME280;66287;42.658;27.568;2023-03-05T07:15:06;99730.72;;;15.30;58.49
77250;BME280;66287;42.658;27.568;2023-03-05T07:17:32;99719.88;;;15.63;58.32
77250;BME280;66287;42.658;27.568;2023-03-05T07:19:57;99722.88;;;15.95;57.86
77250;BME280;66287;42.658;27.568;2023-03-05T07:22:22;99712.03;;;16.22;57.38
77250;BME280;66287;42.658;27.568;2023-03-05T07:24:48;99707.06;;;16.36;56.88
77250;BME280;66287;42.658;27.568;2023-03-05T07:27:14;99703.88;;;16.44;56.89
77250;BME280;66287;42.658;27.568;2023-03-05T07:29:39;99699.78;;;16.63;56.86
77250;BME280;66287;42.658;27.568;2023-03-05T07:32:05;99709.09;;;17.38;56.00
77250;BME280;66287;42.658;27.568;2023-03-05T07:34:30;99701.66;;;18.44;53.82
77250;BME280;66287;42.658;27.568;2023-03-05T07:36:56;99704.22;;;19.49;49.49
77250;BME280;66287;42.658;27.568;2023-03-05T07:39:21;99693.69;;;20.52;42.84
77250;BME280;66287;42.658;27.568;2023-03-05T07:41:47;99686.47;;;21.26;40.86
77250;BME280;66287;42.658;27.568;2023-03-05T07:44:15;99686.13;;;21.38;40.92
77250;BME280;66287;42.658;27.568;2023-03-05T07:46:41;99691.41;;;21.29;41.50
77250;BME280;66287;42.658;27.568;2023-03-05T07:49:07;99695.41;;;20.38;39.36
77250;BME280;66287;42.658;27.568;2023-03-05T07:51:32;99687.16;;;20.08;39.07
77250;BME280;66287;42.658;27.568;2023-03-05T07:53:58;99683.00;;;20.20;39.98
77250;BME280;66287;42.658;27.568;2023-03-05T07:56:25;99674.91;;;20.64;39.90
77250;BME280;66287;42.658;27.568;2023-03-05T07:58:54;99674.16;;;20.49;40.03
77250;BME280;66287;42.658;27.568;2023-03-05T08:01:19;99685.44;;;20.57;38.93
77250;BME280;66287;42.658;27.568;2023-03-05T08:03:44;99664.22;;;20.58;40.22
77250;BME280;66287;42.658;27.568;2023-03-05T08:06:10;99669.41;;;20.59;40.58
77250;BME280;66287;42.658;27.568;2023-03-05T08:08:36;99660.66;;;21.07;39.25
77250;BME280;66287;42.658;27.568;2023-03-05T08:11:05;99664.94;;;21.28;37.17
77250;BME280;66287;42.658;27.568;2023-03-05T08:13:31;99657.75;;;21.32;37.82
77250;BME280;66287;42.658;27.568;2023-03-05T08:15:57;99663.09;;;21.13;40.71
77250;BME280;66287;42.658;27.568;2023-03-05T08:18:23;99657.03;;;21.11;38.43
77250;BME280;66287;42.658;27.568;2023-03-05T08:20:48;99660.78;;;20.81;38.33
77250;BME280;66287;42.658;27.568;2023-03-05T08:23:13;99654.44;;;20.86;41.10
77250;BME280;66287;42.658;27.568;2023-03-05T08:25:39;99652.19;;;20.18;40.05
77250;BME280;66287;42.658;27.568;2023-03-05T08:28:04;99656.63;;;19.99;39.37
77250;BME280;66287;42.658;27.568;2023-03-05T08:30:30;99657.22;;;19.81;40.15
77250;BME280;66287;42.658;27.568;2023-03-05T08:32:55;99648.97;;;19.81;39.62
77250;BME280;66287;42.658;27.568;2023-03-05T08:35:21;99658.31;;;19.80;38.42
77250;BME280;66287;42.658;27.568;2023-03-05T08:37:47;99648.16;;;19.95;39.22
77250;BME280;66287;42.658;27.568;2023-03-05T08:40:13;99648.97;;;19.30;39.82
77250;BME280;66287;42.658;27.568;2023-03-05T08:42:38;99658.06;;;19.51;39.66
77250;BME280;66287;42.658;27.568;2023-03-05T08:45:04;99657.19;;;20.11;38.77
77250;BME280;66287;42.658;27.568;2023-03-05T08:47:29;99654.50;;;19.66;39.84
77250;BME280;66287;42.658;27.568;2023-03-05T08:49:55;99659.69;;;19.82;40.26
77250;BME280;66287;42.658;27.568;2023-03-05T08:52:22;99651.31;;;20.48;39.19
77250;BME280;66287;42.658;27.568;2023-03-05T08:54:47;99643.88;;;20.49;37.12
77250;BME280;66287;42.658;27.568;2023-03-05T08:57:13;99653.88;;;20.84;37.15
77250;BME280;66287;42.658;27.568;2023-03-05T08:59:38;99641.19;;;21.37;37.41
77250;BME280;66287;42.658;27.568;2023-03-05T09:02:04;99645.81;;;21.76;37.76
77250;BME280;66287;42.658;27.568;2023-03-05T09:04:29;99646.22;;;21.59;37.00
77250;BME280;66287;42.658;27.568;2023-03-05T09:06:55;99641.78;;;21.63;37.05
77250;BME280;66287;42.658;27.568;2023-03-05T09:09:21;99633.03;;;21.56;36.20
77250;BME280;66287;42.658;27.568;2023-03-05T09:11:47;99638.69;;;21.70;37.48
77250;BME280;66287;42.658;27.568;2023-03-05T09:14:13;99638.06;;;22.07;38.60
77250;BME280;66287;42.658;27.568;2023-03-05T09:16:38;99632.22;;;22.13;35.68
77250;BME280;66287;42.658;27.568;2023-03-05T09:19:05;99635.31;;;22.30;34.35
77250;BME280;66287;42.658;27.568;2023-03-05T09:21:33;99634.81;;;21.71;36.09
77250;BME280;66287;42.658;27.568;2023-03-05T09:23:58;99630.59;;;21.78;35.69
77250;BME280;66287;42.658;27.568;2023-03-05T09:26:24;99625.81;;;21.26;37.40
77250;BME280;66287;42.658;27.568;2023-03-05T09:28:50;99631.31;;;21.31;36.92
77250;BME280;66287;42.658;27.568;2023-03-05T09:31:16;99630.31;;;21.51;37.50
77250;BME280;66287;42.658;27.568;2023-03-05T09:33:42;99628.63;;;21.55;35.42
77250;BME280;66287;42.658;27.568;2023-03-05T09:38:59;99616.44;;;21.90;37.83
77250;BME280;66287;42.658;27.568;2023-03-05T09:46:54;99611.44;;;21.63;37.79
77250;BME280;66287;42.658;27.568;2023-03-05T09:52:14;99599.47;;;21.78;38.63
77250;BME280;66287;42.658;27.568;2023-03-05T09:54:41;99592.59;;;21.75;36.96
77250;BME280;66287;42.658;27.568;2023-03-05T09:57:11;99593.50;;;21.65;38.09
77250;BME280;66287;42.658;27.568;2023-03-05T09:59:46;99597.16;;;21.85;37.24
77250;BME280;66287;42.658;27.568;2023-03-05T10:02:17;99595.72;;;21.92;37.08
77250;BME280;66287;42.658;27.568;2023-03-05T10:07:14;99594.31;;;22.43;37.35
77250;BME280;66287;42.658;27.568;2023-03-05T10:09:44;99599.09;;;22.13;36.85
77250;BME280;66287;42.658;27.568;2023-03-05T10:14:39;99587.47;;;22.16;36.95
77250;BME280;66287;42.658;27.568;2023-03-05T10:19:45;99580.41;;;22.05;36.69
77250;BME280;66287;42.658;27.568;2023-03-05T10:27:13;99578.38;;;20.46;37.60
77250;BME280;66287;42.658;27.568;2023-03-05T10:34:42;99565.06;;;20.63;36.98
77250;BME280;66287;42.658;27.568;2023-03-05T10:47:55;99537.00;;;21.34;37.66
77250;BME280;66287;42.658;27.568;2023-03-05T10:55:32;99529.28;;;21.60;36.41
77250;BME280;66287;42.658;27.568;2023-03-05T10:57:58;99528.28;;;21.51;34.45
77250;BME280;66287;42.658;27.568;2023-03-05T11:00:30;99533.16;;;20.96;35.00
77250;BME280;66287;42.658;27.568;2023-03-05T11:03:03;99521.25;;;20.67;36.82
77250;BME280;66287;42.658;27.568;2023-03-05T11:05:58;99516.69;;;20.47;37.34
77250;BME280;66287;42.658;27.568;2023-03-05T11:11:03;99518.81;;;20.60;37.62
77250;BME280;66287;42.658;27.568;2023-03-05T11:13:29;99504.56;;;20.92;37.20
77250;BME280;66287;42.658;27.568;2023-03-05T11:18:43;99491.66;;;21.45;35.55
77250;BME280;66287;42.658;27.568;2023-03-05T11:21:11;99484.91;;;21.80;37.87
77250;BME280;66287;42.658;27.568;2023-03-05T11:23:43;99484.97;;;22.42;35.45
77250;BME280;66287;42.658;27.568;2023-03-05T11:26:17;99478.84;;;22.82;34.63
77250;BME280;66287;42.658;27.568;2023-03-05T11:34:04;99464.06;;;24.07;31.15
77250;BME280;66287;42.658;27.568;2023-03-05T11:41:31;99454.59;;;24.71;30.70
77250;BME280;66287;42.658;27.568;2023-03-05T11:43:58;99457.00;;;25.09;29.21
77250;BME280;66287;42.658;27.568;2023-03-05T11:46:28;99455.41;;;24.94;27.53
77250;BME280;66287;42.658;27.568;2023-03-05T11:48:54;99456.19;;;24.00;29.10
77250;BME280;66287;42.658;27.568;2023-03-05T11:54:11;99449.34;;;22.96;32.86
77250;BME280;66287;42.658;27.568;2023-03-05T11:56:38;99453.03;;;22.54;29.88
77250;BME280;66287;42.658;27.568;2023-03-05T12:01:47;99449.09;;;21.99;31.62
77250;BME280;66287;42.658;27.568;2023-03-05T12:04:21;99450.41;;;21.83;32.13
77250;BME280;66287;42.658;27.568;2023-03-05T12:06:52;99449.06;;;22.23;32.36
77250;BME280;66287;42.658;27.568;2023-03-05T12:11:51;99448.50;;;21.59;31.78
77250;BME280;66287;42.658;27.568;2023-03-05T12:22:30;99434.50;;;21.56;34.33
77250;BME280;66287;42.658;27.568;2023-03-05T12:27:55;99431.50;;;21.95;32.33
77250;BME280;66287;42.658;27.568;2023-03-05T12:32:59;99423.75;;;21.97;32.13
77250;BME280;66287;42.658;27.568;2023-03-05T12:35:29;99417.53;;;21.86;31.96
77250;BME280;66287;42.658;27.568;2023-03-05T12:37:59;99420.00;;;21.88;31.42
77250;BME280;66287;42.658;27.568;2023-03-05T12:40:27;99411.47;;;22.27;32.29
77250;BME280;66287;42.658;27.568;2023-03-05T12:42:59;99414.44;;;22.49;31.72
77250;BME280;66287;42.658;27.568;2023-03-05T13:03:20;99407.75;;;21.56;34.66
77250;BME280;66287;42.658;27.568;2023-03-05T13:05:48;99394.72;;;21.38;34.16
77250;BME280;66287;42.658;27.568;2023-03-05T13:10:39;99398.84;;;21.59;34.68
77250;BME280;66287;42.658;27.568;2023-03-05T13:13:05;99398.00;;;21.40;32.47
77250;BME280;66287;42.658;27.568;2023-03-05T13:15:30;99382.97;;;21.27;34.65
77250;BME280;66287;42.658;27.568;2023-03-05T13:17:57;99379.47;;;21.22;34.11
77250;BME280;66287;42.658;27.568;2023-03-05T13:20:37;99377.78;;;20.97;35.20
77250;BME280;66287;42.658;27.568;2023-03-05T13:23:13;99382.47;;;20.96;35.71
77250;BME280;66287;42.658;27.568;2023-03-05T13:28:34;99366.78;;;20.97;36.44
77250;BME280;66287;42.658;27.568;2023-03-05T13:31:09;99368.75;;;20.91;36.78
77250;BME280;66287;42.658;27.568;2023-03-05T13:33:36;99365.94;;;20.96;37.04
77250;BME280;66287;42.658;27.568;2023-03-05T13:36:05;99361.19;;;20.78;37.38
77250;BME280;66287;42.658;27.568;2023-03-05T13:43:51;99357.63;;;20.44;36.86
77250;BME280;66287;42.658;27.568;2023-03-05T13:48:48;99366.22;;;20.32;36.85
77250;BME280;66287;42.658;27.568;2023-03-05T13:51:23;99364.09;;;20.19;36.86
77250;BME280;66287;42.658;27.568;2023-03-05T13:54:02;99361.75;;;20.02;37.34
77250;BME280;66287;42.658;27.568;2023-03-05T13:56:28;99363.22;;;19.89;37.29
77250;BME280;66287;42.658;27.568;2023-03-05T13:58:55;99367.47;;;19.72;37.84
77250;BME280;66287;42.658;27.568;2023-03-05T14:01:33;99364.53;;;19.53;39.13
77250;BME280;66287;42.658;27.568;2023-03-05T14:06:49;99375.84;;;19.26;39.07
77250;BME280;66287;42.658;27.568;2023-03-05T14:14:25;99367.44;;;18.97;40.35
77250;BME280;66287;42.658;27.568;2023-03-05T14:17:31;99360.91;;;18.78;40.41
77250;BME280;66287;42.658;27.568;2023-03-05T14:22:39;99360.06;;;18.72;41.25
77250;BME280;66287;42.658;27.568;2023-03-05T14:28:23;99363.34;;;18.54;42.10
77250;BME280;66287;42.658;27.568;2023-03-05T14:31:15;99367.75;;;18.45;41.60
77250;BME280;66287;42.658;27.568;2023-03-05T14:33:53;99349.63;;;18.39;42.54
77250;BME280;66287;42.658;27.568;2023-03-05T14:36:33;99351.84;;;18.32;42.92
77250;BME280;66287;42.658;27.568;2023-03-05T14:38:59;99355.13;;;18.29;43.12
77250;BME280;66287;42.658;27.568;2023-03-05T14:41:36;99350.75;;;18.12;43.33
77250;BME280;66287;42.658;27.568;2023-03-05T14:44:13;99338.91;;;18.02;43.36
77250;BME280;66287;42.658;27.568;2023-03-05T14:46:39;99333.72;;;17.95;43.49
77250;BME280;66287;42.658;27.568;2023-03-05T14:49:05;99327.97;;;17.92;43.52
77250;BME280;66287;42.658;27.568;2023-03-05T14:51:32;99334.81;;;17.94;44.30
77250;BME280;66287;42.658;27.568;2023-03-05T14:54:01;99330.72;;;17.97;44.11
77250;BME280;66287;42.658;27.568;2023-03-05T14:56:27;99324.41;;;17.96;43.86
77250;BME280;66287;42.658;27.568;2023-03-05T14:58:53;99322.19;;;17.93;43.71
77250;BME280;66287;42.658;27.568;2023-03-05T15:01:18;99328.50;;;17.88;44.44
77250;BME280;66287;42.658;27.568;2023-03-05T15:03:44;99326.56;;;17.89;44.08
77250;BME280;66287;42.658;27.568;2023-03-05T15:06:18;99328.50;;;17.88;44.50
77250;BME280;66287;42.658;27.568;2023-03-05T15:08:45;99323.56;;;17.90;44.68